createdAt,value
2018-12-14T00:00:39.027Z,66.20
2018-12-14T00:03:07.014Z,66.20
2018-12-14T00:05:34.606Z,66.20
2018-12-14T00:08:02.187Z,66.40
2018-12-14T00:10:30.231Z,67.00
2018-12-14T00:12:58.566Z,67.20
2018-12-14T00:15:26.145Z,67.20
2018-12-14T00:17:54.011Z,67.40
2018-12-14T00:20:21.583Z,67.50
2018-12-14T00:22:49.166Z,67.50
2018-12-14T00:25:17.538Z,67.90
2018-12-14T00:27:45.467Z,67.90
2018-12-14T00:30:13.840Z,67.30
2018-12-14T00:32:41.419Z,67.40
2018-12-14T00:35:08.996Z,67.60
2018-12-14T00:37:36.599Z,67.60
2018-12-14T00:40:04.169Z,67.60
2018-12-14T00:42:31.747Z,67.80
2018-12-14T00:44:59.366Z,68.30
2018-12-14T00:47:26.942Z,68.40
2018-12-14T00:49:54.527Z,68.40
2018-12-14T00:52:22.424Z,68.00
2018-12-14T00:54:50.003Z,67.90
2018-12-14T00:57:17.576Z,68.20
2018-12-14T00:59:46.180Z,68.10
2018-12-14T01:02:28.816Z,68.10
2018-12-14T01:04:56.406Z,68.10
2018-12-14T01:07:23.978Z,68.10
2018-12-14T01:09:51.605Z,68.00
2018-12-14T01:12:19.185Z,67.60
2018-12-14T01:14:46.781Z,67.60
2018-12-14T01:17:14.812Z,67.60
2018-12-14T01:19:42.390Z,67.40
2018-12-14T01:22:10.247Z,66.90
2018-12-14T01:24:38.135Z,66.80
2018-12-14T01:27:05.729Z,67.00
2018-12-14T01:29:34.065Z,67.70
2018-12-14T01:32:01.669Z,67.70
2018-12-14T01:34:29.236Z,67.40
2018-12-14T01:36:56.822Z,67.50
2018-12-14T01:39:24.482Z,67.10
2018-12-14T01:41:52.055Z,67.10
2018-12-14T01:44:19.630Z,67.70
2018-12-14T01:46:47.620Z,67.90
2018-12-14T01:49:15.191Z,67.70
2018-12-14T01:51:42.810Z,67.70
2018-12-14T01:54:11.540Z,67.60
2018-12-14T01:56:39.120Z,67.50
2018-12-14T01:59:07.462Z,67.70
2018-12-14T02:01:35.444Z,67.70
2018-12-14T02:04:03.012Z,67.60
2018-12-14T02:06:30.587Z,67.60
2018-12-14T02:08:59.234Z,68.70
2018-12-14T02:11:26.805Z,67.90
2018-12-14T02:13:54.378Z,67.90
2018-12-14T02:16:21.996Z,67.90
2018-12-14T02:18:50.086Z,68.00
2018-12-14T02:21:17.667Z,68.30
2018-12-14T02:23:45.639Z,68.00
2018-12-14T02:26:13.218Z,67.40
2018-12-14T02:28:40.799Z,66.80
2018-12-14T02:31:08.416Z,66.70
2018-12-14T02:33:36.016Z,66.60
2018-12-14T02:36:03.598Z,66.30
2018-12-14T02:38:31.189Z,66.50
2018-12-14T02:40:58.770Z,66.60
2018-12-14T02:43:26.406Z,66.60
2018-12-14T02:45:53.975Z,66.80
2018-12-14T02:48:21.561Z,67.60
2018-12-14T02:50:49.157Z,67.70
2018-12-14T02:53:16.759Z,67.70
2018-12-14T02:55:44.364Z,68.00
2018-12-14T02:58:11.943Z,67.60
2018-12-14T03:00:40.284Z,67.20
2018-12-14T03:03:07.877Z,67.20
2018-12-14T03:05:36.248Z,67.30
2018-12-14T03:08:04.671Z,67.60
2018-12-14T03:10:32.243Z,67.60
2018-12-14T03:12:59.824Z,67.70
2018-12-14T03:15:27.427Z,67.30
2018-12-14T03:17:55.761Z,67.00
2018-12-14T03:20:23.650Z,66.90
2018-12-14T03:22:51.225Z,66.70
2018-12-14T03:25:19.567Z,66.70
2018-12-14T03:27:47.163Z,66.70
2018-12-14T03:30:14.745Z,66.70
2018-12-14T03:32:43.391Z,67.10
2018-12-14T03:35:10.953Z,67.20
2018-12-14T03:37:38.522Z,67.10
2018-12-14T03:40:06.127Z,67.40
2018-12-14T03:42:34.569Z,67.60
2018-12-14T03:45:01.707Z,67.50
2018-12-14T03:47:29.300Z,67.60
2018-12-14T03:49:57.673Z,67.60
2018-12-14T03:52:25.274Z,67.50
2018-12-14T03:54:52.866Z,67.10
2018-12-14T03:57:20.495Z,66.80
2018-12-14T03:59:48.062Z,66.50
2018-12-14T04:02:15.641Z,66.50
2018-12-14T04:04:43.244Z,66.90
2018-12-14T04:07:11.594Z,66.80
2018-12-14T04:09:39.727Z,66.80
2018-12-14T04:12:07.303Z,67.00
2018-12-14T04:14:34.868Z,67.10
2018-12-14T04:17:02.474Z,67.30
2018-12-14T04:19:30.048Z,67.60
2018-12-14T04:21:58.450Z,67.90
2018-12-14T04:24:26.783Z,68.30
2018-12-14T04:26:54.355Z,68.10
2018-12-14T04:29:21.956Z,68.60
2018-12-14T04:31:49.528Z,68.70
2018-12-14T04:34:17.156Z,68.90
2018-12-14T04:36:45.493Z,69.00
2018-12-14T04:39:13.065Z,69.00
2018-12-14T04:41:42.860Z,68.80
2018-12-14T04:44:10.434Z,68.90
2018-12-14T04:46:38.007Z,69.00
2018-12-14T04:49:05.620Z,68.60
2018-12-14T04:51:33.184Z,68.30
2018-12-14T04:54:02.224Z,68.50
2018-12-14T04:56:29.813Z,68.40
2018-12-14T04:58:58.147Z,69.20
2018-12-14T05:01:25.747Z,68.40
2018-12-14T05:03:54.091Z,68.10
2018-12-14T05:06:21.747Z,68.00
2018-12-14T05:08:49.290Z,68.10
2018-12-14T05:11:16.872Z,68.10
2018-12-14T05:13:44.480Z,68.30
2018-12-14T05:16:12.040Z,68.10
2018-12-14T05:18:40.957Z,68.50
2018-12-14T05:21:08.564Z,68.50
2018-12-14T05:23:36.138Z,68.70
2018-12-14T05:26:04.024Z,68.60
2018-12-14T05:28:31.603Z,68.70
2018-12-14T05:30:59.174Z,68.30
2018-12-14T05:33:27.489Z,68.10
2018-12-14T05:35:55.104Z,68.30
2018-12-14T05:38:22.649Z,68.40
2018-12-14T05:40:51.388Z,69.00
2018-12-14T05:43:18.983Z,68.90
2018-12-14T05:45:46.566Z,68.50
2018-12-14T05:48:14.186Z,68.30
2018-12-14T05:50:41.761Z,68.30
2018-12-14T05:53:09.337Z,68.40
2018-12-14T05:55:36.949Z,68.40
2018-12-14T05:58:05.034Z,68.40
2018-12-14T06:00:32.933Z,68.30
2018-12-14T06:03:00.502Z,67.90
2018-12-14T06:05:28.061Z,67.80
2018-12-14T06:07:56.018Z,68.00
2018-12-14T06:10:23.583Z,68.40
2018-12-14T06:12:51.163Z,68.00
2018-12-14T06:15:19.571Z,68.40
2018-12-14T06:17:47.147Z,68.40
2018-12-14T06:20:14.712Z,68.00
2018-12-14T06:22:42.370Z,67.80
2018-12-14T06:25:09.949Z,67.50
2018-12-14T06:27:37.522Z,67.70
2018-12-14T06:30:05.395Z,67.80
2018-12-14T06:32:32.973Z,68.00
2018-12-14T06:35:00.541Z,68.30
2018-12-14T06:37:29.921Z,67.80
2018-12-14T06:39:57.521Z,67.70
2018-12-14T06:42:25.101Z,67.80
2018-12-14T06:44:52.705Z,68.10
2018-12-14T06:47:20.282Z,68.30
2018-12-14T06:49:47.907Z,68.30
2018-12-14T06:52:15.483Z,68.40
2018-12-14T06:54:43.053Z,68.20
2018-12-14T06:57:10.766Z,68.30
2018-12-14T06:59:38.346Z,68.70
2018-12-14T07:02:05.921Z,68.20
2018-12-14T07:04:33.521Z,67.70
2018-12-14T07:07:04.066Z,67.80
2018-12-14T07:09:29.502Z,68.20
2018-12-14T07:11:57.077Z,68.00
2018-12-14T07:14:24.659Z,68.30
2018-12-14T07:16:52.261Z,68.20
2018-12-14T07:19:20.601Z,68.50
2018-12-14T07:21:48.585Z,68.40
2018-12-14T07:24:16.169Z,68.50
2018-12-14T07:26:44.506Z,69.70
2018-12-14T07:29:12.158Z,69.70
2018-12-14T07:31:39.730Z,69.00
2018-12-14T07:34:07.307Z,68.60
2018-12-14T07:36:36.259Z,68.50
2018-12-14T07:39:03.834Z,68.80
2018-12-14T07:41:31.413Z,68.30
2018-12-14T07:43:59.391Z,68.20
2018-12-14T07:46:26.967Z,68.20
2018-12-14T07:48:54.542Z,68.40
2018-12-14T07:51:23.184Z,69.20
2018-12-14T07:53:50.766Z,68.40
2018-12-14T07:56:18.336Z,68.30
2018-12-14T07:58:46.986Z,68.20
2018-12-14T08:01:14.560Z,68.50
2018-12-14T08:03:42.155Z,68.80
2018-12-14T08:06:09.798Z,68.90
2018-12-14T08:08:37.367Z,68.60
2018-12-14T08:11:04.948Z,68.40
2018-12-14T08:13:34.862Z,68.50
2018-12-14T08:16:00.152Z,68.30
2018-12-14T08:18:27.736Z,68.20
2018-12-14T08:20:57.119Z,68.80
2018-12-14T08:23:24.726Z,68.70
2018-12-14T08:25:52.298Z,68.10
2018-12-14T08:28:20.207Z,67.80
2018-12-14T08:30:47.767Z,68.20
2018-12-14T08:33:15.347Z,67.60
2018-12-14T08:35:43.015Z,67.30
2018-12-14T08:38:11.362Z,68.30
2018-12-14T08:40:39.628Z,67.60
2018-12-14T08:43:07.510Z,67.60
2018-12-14T08:45:35.082Z,67.70
2018-12-14T08:48:02.677Z,68.00
2018-12-14T08:50:30.713Z,68.10
2018-12-14T08:52:58.294Z,68.40
2018-12-14T08:55:26.939Z,67.10
2018-12-14T08:57:54.913Z,67.10
2018-12-14T09:00:22.487Z,66.90
2018-12-14T09:02:50.059Z,66.80
2018-12-14T09:05:17.665Z,67.00
2018-12-14T09:07:45.242Z,67.10
2018-12-14T09:10:12.860Z,67.60
2018-12-14T09:12:40.432Z,67.40
2018-12-14T09:15:08.771Z,67.50
2018-12-14T09:17:36.753Z,67.50
2018-12-14T09:20:04.318Z,68.40
2018-12-14T09:22:31.894Z,67.80
2018-12-14T09:25:00.268Z,68.10
2018-12-14T09:27:27.854Z,67.40
2018-12-14T09:29:57.651Z,67.20
2018-12-14T09:32:25.188Z,67.10
2018-12-14T09:34:52.770Z,67.30
2018-12-14T09:37:21.946Z,67.60
2018-12-14T09:39:49.519Z,67.40
2018-12-14T09:42:17.097Z,67.00
2018-12-14T09:44:45.485Z,67.40
2018-12-14T09:47:13.835Z,67.40
2018-12-14T09:49:41.886Z,67.30
2018-12-14T09:52:09.504Z,67.30
2018-12-14T09:54:37.856Z,67.30
2018-12-14T09:57:05.435Z,67.20
2018-12-14T09:59:34.613Z,67.20
2018-12-14T10:02:02.190Z,66.50
2018-12-14T10:04:30.534Z,66.50
2018-12-14T10:06:58.622Z,66.50
2018-12-14T10:09:26.196Z,66.20
2018-12-14T10:11:55.169Z,65.60
2018-12-14T10:14:22.945Z,66.70
2018-12-14T10:16:50.525Z,65.90
2018-12-14T10:19:18.885Z,67.20
2018-12-14T10:21:46.476Z,67.20
2018-12-14T10:24:14.822Z,66.50
2018-12-14T10:26:42.794Z,66.40
2018-12-14T10:29:10.364Z,66.10
2018-12-14T10:31:37.946Z,66.20
2018-12-14T10:34:05.538Z,66.50
2018-12-14T10:36:33.108Z,66.50
2018-12-14T10:39:00.734Z,66.10
2018-12-14T10:41:29.087Z,65.90
2018-12-14T10:43:56.641Z,65.90
2018-12-14T10:46:24.235Z,66.60
2018-12-14T10:48:51.812Z,66.00
2018-12-14T10:51:19.741Z,65.70
2018-12-14T10:53:47.374Z,65.60
2018-12-14T10:56:14.955Z,65.80
2018-12-14T10:58:42.560Z,66.20
2018-12-14T11:01:28.014Z,66.40
2018-12-14T11:03:55.609Z,66.40
2018-12-14T11:06:23.967Z,66.00
2018-12-14T11:08:52.355Z,65.70
2018-12-14T11:11:20.719Z,65.90
2018-12-14T11:13:48.280Z,65.90
2018-12-14T11:16:15.880Z,65.70
2018-12-14T11:18:43.462Z,65.70
2018-12-14T11:21:11.363Z,65.90
2018-12-14T11:23:38.936Z,66.70
2018-12-14T11:26:06.872Z,66.60
2018-12-14T11:28:34.471Z,66.60
2018-12-14T11:31:02.043Z,66.60
2018-12-14T11:33:30.703Z,66.50
2018-12-14T11:35:58.285Z,66.50
2018-12-14T11:38:25.856Z,66.70
2018-12-14T11:40:54.278Z,67.00
2018-12-14T11:43:21.817Z,67.00
2018-12-14T11:45:51.697Z,67.40
2018-12-14T11:48:19.215Z,67.20
2018-12-14T11:50:47.000Z,67.40
2018-12-14T11:53:15.689Z,67.00
2018-12-14T11:55:43.292Z,67.00
2018-12-14T11:58:11.699Z,67.80
2018-12-14T12:00:39.281Z,67.70
2018-12-14T12:03:06.860Z,67.40
2018-12-14T12:05:34.467Z,67.40
2018-12-14T12:08:02.087Z,67.60
2018-12-14T12:10:30.177Z,67.20
2018-12-14T12:12:57.747Z,67.10
2018-12-14T12:15:26.094Z,67.30
2018-12-14T12:17:55.206Z,67.20
2018-12-14T12:20:23.207Z,67.10
2018-12-14T12:22:51.851Z,67.10
2018-12-14T12:25:20.126Z,66.90
2018-12-14T12:27:47.701Z,66.80
2018-12-14T12:30:15.304Z,67.50
2018-12-14T12:32:42.888Z,67.30
2018-12-14T12:35:12.123Z,67.10
2018-12-14T12:37:39.682Z,66.60
2018-12-14T12:40:07.264Z,66.50
2018-12-14T12:42:34.860Z,66.70
2018-12-14T12:45:02.436Z,66.60
2018-12-14T12:47:30.052Z,66.50
2018-12-14T12:49:58.395Z,67.40
2018-12-14T12:52:25.987Z,67.30
2018-12-14T12:54:53.601Z,67.50
2018-12-14T12:57:21.204Z,67.90
2018-12-14T12:59:48.783Z,67.90
2018-12-14T13:02:17.188Z,67.70
2018-12-14T13:04:44.767Z,67.60
2018-12-14T13:07:12.339Z,68.00
2018-12-14T13:09:39.948Z,67.80
2018-12-14T13:12:07.674Z,67.70
2018-12-14T13:14:40.049Z,67.90
2018-12-14T13:17:03.628Z,67.90
2018-12-14T13:19:31.206Z,67.80
2018-12-14T13:21:58.777Z,67.90
2018-12-14T13:24:27.237Z,68.30
2018-12-14T13:26:54.810Z,68.20
2018-12-14T13:29:23.152Z,68.90
2018-12-14T13:31:51.344Z,68.10
2018-12-14T13:34:18.929Z,67.80
2018-12-14T13:36:48.106Z,66.70
2018-12-14T13:39:15.703Z,66.70
2018-12-14T13:41:43.263Z,66.40
2018-12-14T13:44:11.619Z,66.20
2018-12-14T13:46:39.201Z,66.20
2018-12-14T13:49:07.963Z,66.80
2018-12-14T13:51:35.551Z,65.90
2018-12-14T13:54:03.166Z,66.10
2018-12-14T13:56:30.725Z,67.00
2018-12-14T13:58:58.296Z,66.10
2018-12-14T14:01:25.932Z,66.10
2018-12-14T14:03:53.505Z,66.00
2018-12-14T14:06:21.077Z,66.30
2018-12-14T14:08:48.726Z,66.40
2018-12-14T14:11:16.302Z,66.80
2018-12-14T14:13:45.006Z,66.60
2018-12-14T14:16:12.579Z,66.60
2018-12-14T14:18:40.160Z,66.70
2018-12-14T14:21:07.760Z,67.10
2018-12-14T14:23:35.356Z,66.70
2018-12-14T14:26:03.526Z,66.80
2018-12-14T14:28:31.101Z,66.90
2018-12-14T14:30:58.720Z,67.20
2018-12-14T14:33:26.361Z,67.50
2018-12-14T14:35:53.957Z,67.50
2018-12-14T14:38:21.891Z,67.60
2018-12-14T14:40:49.519Z,68.10
2018-12-14T14:43:17.095Z,68.10
2018-12-14T14:45:45.458Z,68.50
2018-12-14T14:48:13.033Z,68.50
2018-12-14T14:50:42.385Z,68.50
2018-12-14T14:53:09.893Z,68.70
2018-12-14T14:55:37.474Z,68.90
2018-12-14T14:58:05.074Z,69.40
2018-12-14T15:00:32.667Z,68.90
2018-12-14T15:03:00.894Z,68.80
2018-12-14T15:05:28.491Z,69.10
2018-12-14T15:07:56.096Z,69.20
2018-12-14T15:10:23.700Z,69.40
2018-12-14T15:12:51.273Z,69.40
2018-12-14T15:15:19.879Z,69.20
2018-12-14T15:17:48.461Z,70.00
2018-12-14T15:20:16.026Z,69.60
2018-12-14T15:22:43.667Z,69.30
2018-12-14T15:25:13.299Z,69.00
2018-12-14T15:27:42.068Z,68.40
2018-12-14T15:30:09.629Z,68.10
2018-12-14T15:32:37.209Z,68.80
2018-12-14T15:35:04.809Z,69.00
2018-12-14T15:37:32.386Z,68.80
2018-12-14T15:40:01.419Z,69.00
2018-12-14T15:42:28.985Z,69.20
2018-12-14T15:44:56.561Z,69.30
2018-12-14T15:47:24.193Z,69.20
2018-12-14T15:49:51.799Z,69.50
2018-12-14T15:52:19.939Z,69.60
2018-12-14T15:54:47.522Z,69.70
2018-12-14T15:57:15.180Z,70.00
2018-12-14T15:59:43.552Z,70.00
2018-12-14T16:02:11.167Z,70.00
2018-12-14T16:04:39.178Z,69.20
2018-12-14T16:07:06.761Z,69.00
2018-12-14T16:09:35.119Z,69.10
2018-12-14T16:12:02.736Z,69.10
2018-12-14T16:14:34.317Z,69.10
2018-12-14T16:16:58.012Z,69.00
2018-12-14T16:19:25.552Z,69.00
2018-12-14T16:21:53.131Z,69.00
2018-12-14T16:24:20.903Z,69.10
2018-12-14T16:26:48.347Z,69.40
2018-12-14T16:29:19.064Z,69.60
2018-12-14T16:31:46.846Z,69.30
2018-12-14T16:34:14.378Z,69.00
2018-12-14T16:36:42.009Z,68.90
2018-12-14T16:39:10.744Z,69.00
2018-12-14T16:41:39.765Z,69.00
2018-12-14T16:44:07.345Z,69.60
2018-12-14T16:46:34.926Z,68.80
2018-12-14T16:49:02.965Z,68.80
2018-12-14T16:51:30.537Z,68.80
2018-12-14T16:54:03.885Z,69.00
2018-12-14T16:56:31.473Z,69.20
2018-12-14T16:58:59.057Z,69.60
2018-12-14T17:01:27.423Z,69.20
2018-12-14T17:03:55.006Z,69.20
2018-12-14T17:06:23.055Z,69.20
2018-12-14T17:08:50.628Z,69.40
2018-12-14T17:11:18.570Z,68.90
2018-12-14T17:13:46.179Z,68.90
2018-12-14T17:16:14.529Z,69.40
2018-12-14T17:18:43.019Z,69.30
2018-12-14T17:21:10.601Z,68.90
2018-12-14T17:23:38.987Z,68.40
2018-12-14T17:26:06.555Z,68.40
2018-12-14T17:28:34.459Z,68.40
2018-12-14T17:31:02.583Z,68.10
2018-12-14T17:33:35.899Z,68.20
2018-12-14T17:35:57.742Z,67.50
2018-12-14T17:38:25.390Z,67.10
2018-12-14T17:40:52.952Z,67.50
2018-12-14T17:43:20.610Z,67.70
2018-12-14T17:45:48.173Z,67.90
2018-12-14T17:48:15.756Z,68.20
2018-12-14T17:50:43.370Z,68.40
2018-12-14T17:53:10.960Z,68.70
2018-12-14T17:55:39.429Z,68.80
2018-12-14T17:58:07.776Z,69.00
2018-12-14T18:00:35.367Z,68.90
2018-12-14T18:03:03.734Z,69.00
2018-12-14T18:05:32.080Z,68.70
2018-12-14T18:08:00.007Z,68.90
2018-12-14T18:10:27.581Z,68.80
2018-12-14T18:12:55.162Z,68.90
2018-12-14T18:15:22.762Z,68.90
2018-12-14T18:17:50.352Z,69.20
2018-12-14T18:20:18.763Z,69.20
2018-12-14T18:22:46.682Z,69.20
2018-12-14T18:25:15.023Z,69.30
2018-12-14T18:27:42.631Z,69.30
2018-12-14T18:30:10.988Z,68.40
2018-12-14T18:32:38.953Z,68.40
2018-12-14T18:35:06.528Z,68.20
2018-12-14T18:37:34.359Z,68.40
2018-12-14T18:40:03.176Z,68.20
2018-12-14T18:42:30.759Z,67.90
2018-12-14T18:44:58.345Z,67.70
2018-12-14T18:47:26.316Z,67.30
2018-12-14T18:49:53.893Z,66.90
2018-12-14T18:52:21.488Z,67.00
2018-12-14T18:54:49.462Z,66.70
2018-12-14T18:57:17.033Z,66.90
2018-12-14T18:59:44.622Z,67.30
2018-12-14T19:02:12.218Z,67.20
2018-12-14T19:04:39.796Z,67.10
2018-12-14T19:07:07.883Z,66.90
2018-12-14T19:09:35.458Z,66.60
2018-12-14T19:12:03.041Z,66.40
2018-12-14T19:14:30.658Z,66.20
2018-12-14T19:16:58.241Z,66.40
2018-12-14T19:19:25.817Z,67.30
2018-12-14T19:21:53.462Z,66.80
2018-12-14T19:24:21.024Z,67.00
2018-12-14T19:26:48.616Z,66.90
2018-12-14T19:29:16.233Z,66.60
2018-12-14T19:31:43.811Z,66.50
2018-12-14T19:34:11.389Z,67.40
2018-12-14T19:36:40.086Z,66.60
2018-12-14T19:39:07.667Z,66.70
2018-12-14T19:41:35.256Z,66.70
2018-12-14T19:44:03.235Z,67.40
2018-12-14T19:46:30.815Z,66.80
2018-12-14T19:48:58.408Z,66.60
2018-12-14T19:51:27.436Z,66.10
2018-12-14T19:53:55.030Z,66.10
2018-12-14T19:56:22.615Z,65.70
2018-12-14T19:58:50.574Z,65.50
2018-12-14T20:01:18.159Z,65.50
2018-12-14T20:03:45.745Z,65.50
2018-12-14T20:06:13.847Z,65.70
2018-12-14T20:08:41.453Z,65.60
2018-12-14T20:11:08.995Z,65.30
2018-12-14T20:13:38.382Z,65.20
2018-12-14T20:16:12.583Z,65.20
2018-12-14T20:18:33.893Z,65.20
2018-12-14T20:21:01.527Z,65.20
2018-12-14T20:23:29.100Z,65.50
2018-12-14T20:25:56.770Z,66.00
2018-12-14T20:28:24.383Z,65.80
2018-12-14T20:30:52.726Z,66.00
2018-12-14T20:33:20.309Z,65.90
2018-12-14T20:35:48.417Z,65.80
2018-12-14T20:38:16.039Z,66.00
2018-12-14T20:40:43.626Z,65.80
2018-12-14T20:43:11.566Z,65.80
2018-12-14T20:45:39.144Z,66.00
2018-12-14T20:48:06.726Z,66.00
2018-12-14T20:50:34.675Z,64.60
2018-12-14T20:53:02.243Z,64.50
2018-12-14T20:55:29.824Z,64.80
2018-12-14T20:57:57.786Z,64.40
2018-12-14T21:00:25.339Z,64.40
2018-12-14T21:02:52.923Z,64.80
2018-12-14T21:05:21.280Z,65.10
2018-12-14T21:07:49.639Z,65.50
2018-12-14T21:10:17.203Z,64.60
2018-12-14T21:12:44.840Z,64.60
2018-12-14T21:15:13.618Z,64.60
2018-12-14T21:17:41.191Z,64.50
2018-12-14T21:20:09.492Z,64.20
2018-12-14T21:22:37.072Z,64.50
2018-12-14T21:25:04.679Z,64.60
2018-12-14T21:27:33.291Z,64.80
2018-12-14T21:30:00.883Z,64.30
2018-12-14T21:32:29.263Z,65.20
2018-12-14T21:34:56.893Z,64.60
2018-12-14T21:37:24.476Z,65.20
2018-12-14T21:39:52.068Z,65.70
2018-12-14T21:42:20.753Z,65.70
2018-12-14T21:44:48.332Z,65.30
2018-12-14T21:47:15.906Z,65.50
2018-12-14T21:49:44.315Z,65.80
2018-12-14T21:52:11.888Z,65.60
2018-12-14T21:54:39.470Z,65.50
2018-12-14T21:57:07.891Z,65.20
2018-12-14T21:59:35.517Z,65.20
2018-12-14T22:02:03.998Z,65.10
2018-12-14T22:04:32.343Z,65.30
2018-12-14T22:06:59.928Z,65.30
2018-12-14T22:09:28.267Z,65.70
2018-12-14T22:11:55.846Z,65.30
2018-12-14T22:14:23.418Z,65.10
2018-12-14T22:16:51.378Z,65.20
2018-12-14T22:19:18.979Z,65.40
2018-12-14T22:21:46.589Z,65.50
2018-12-14T22:24:14.214Z,65.50
2018-12-14T22:26:41.789Z,65.50
2018-12-14T22:29:09.402Z,65.40
2018-12-14T22:31:37.031Z,65.00
2018-12-14T22:34:04.634Z,65.20
2018-12-14T22:36:32.286Z,65.70
2018-12-14T22:38:59.870Z,65.90
2018-12-14T22:41:27.446Z,65.20
2018-12-14T22:43:55.167Z,64.60
2018-12-14T22:46:22.733Z,64.10
2018-12-14T22:48:50.670Z,63.70
2018-12-14T22:51:18.504Z,63.40
2018-12-14T22:53:46.613Z,63.80
2018-12-14T22:56:14.499Z,64.40
2018-12-14T22:58:42.435Z,64.40
2018-12-14T23:01:12.658Z,64.20
2018-12-14T23:03:38.237Z,64.00
2018-12-14T23:06:05.804Z,63.90
2018-12-14T23:08:34.218Z,64.30
2018-12-14T23:11:01.815Z,64.20
2018-12-14T23:13:29.392Z,64.60
2018-12-14T23:15:57.020Z,64.60
2018-12-14T23:18:24.632Z,64.50
2018-12-14T23:20:52.227Z,64.50
2018-12-14T23:23:19.874Z,64.60
2018-12-14T23:25:48.552Z,64.90
2018-12-14T23:28:15.050Z,65.60
2018-12-14T23:30:42.662Z,65.30
2018-12-14T23:33:10.237Z,65.20
2018-12-14T23:35:38.246Z,65.60
2018-12-14T23:38:05.816Z,65.70
2018-12-14T23:40:33.390Z,65.70
2018-12-14T23:43:01.763Z,66.00
2018-12-14T23:45:29.341Z,66.10
2018-12-14T23:47:57.685Z,66.60
2018-12-14T23:50:25.441Z,66.60
2018-12-14T23:52:52.984Z,66.70
2018-12-14T23:55:20.560Z,66.80
2018-12-14T23:57:48.189Z,66.80
